Flight Track Log - Related Links

Times and Time Zones

All times are in EDT time to prevent confusion due to time zone crossing. See the N182BP flight status page for this flight to view local times or setup timezone preferences in your user account.

Time Position Orientation Groundspeed Altitude Reporting Facility
EDT Latitude Longitude Course Direction KTS MPH feet Rate Location/Type
Thu 04:43:47 PM 40.0567 -90.8444 333° Northwest 84 97 4,000  Level Kansas City Center
Thu 04:44:47 PM 40.0781 -90.8647 324° Northwest 84 97 4,800 774 Climbing Kansas City Center
Thu 04:45:51 PM 40.0997 -90.8811 330° Northwest 87 100 5,600 528 Climbing Kansas City Center
Thu 04:46:52 PM 40.1275 -90.8939 341° North 88 101 5,900 146 Climbing Kansas City Center
Thu 04:47:54 PM 40.1594 -90.9119 337° Northwest 112 129 5,900  Level Kansas City Center
Thu 04:48:00 PM 40.1909 -90.9161 333° Northwest  Level FlightAware Approximate
Thu 04:48:57 PM 40.1914 -90.9294 337° Northwest 121 139 5,900  Level Kansas City Center
Thu 04:49:57 PM 40.2214 -90.9456 338° Northwest 118 136 5,900  Level Kansas City Center
Thu 04:51:01 PM 40.2539 -90.9656 335° Northwest 120 138 5,900  Level Kansas City Center
Thu 04:52:04 PM 40.2825 -90.9833 335° Northwest 118 136 5,900  Level Kansas City Center
Thu 04:53:05 PM 40.3167 -91.0036 336° Northwest 117 135 5,900  Level Kansas City Center
Thu 04:54:09 PM 40.3492 -91.0219 337° Northwest 122 140 5,900  Level Kansas City Center
Thu 04:55:09 PM 40.3783 -91.0406 334° Northwest 121 139 5,900  Level Kansas City Center
Thu 04:56:10 PM 40.4056 -91.0592 332° Northwest 116 133 5,900  Level Kansas City Center
Thu 04:57:13 PM 40.4353 -91.0764 336° Northwest 115 132 5,900  Level Kansas City Center
Thu 04:58:14 PM 40.4700 -91.0961 337° Northwest 122 140 5,900  Level Kansas City Center
Thu 04:59:18 PM 40.5025 -91.1150 336° Northwest 127 146 5,900  Level Kansas City Center
Thu 05:00:18 PM 40.5350 -91.1367 333° Northwest 116 133 5,900  Level Kansas City Center
Thu 05:01:22 PM 40.5656 -91.1539 337° Northwest 117 135 5,900  Level Kansas City Center
Thu 05:02:22 PM 40.5961 -91.1728 335° Northwest 119 137 5,900  Level Kansas City Center
Thu 05:03:26 PM 40.6267 -91.1906 336° Northwest 120 138 5,900  Level Chicago Center
Thu 05:04:28 PM 40.6569 -91.2092 335° Northwest 120 138 5,900  Level Chicago Center
Thu 05:05:30 PM 40.6947 -91.2322 335° Northwest 122 140 5,900  Level Chicago Center
Thu 05:06:32 PM 40.7256 -91.2514 335° Northwest 122 140 5,900  Level Chicago Center
Thu 05:07:34 PM 40.7572 -91.2678 339° North 123 142 5,900  Level Chicago Center
Thu 05:08:36 PM 40.7856 -91.2894 330° Northwest 120 138 5,900 48 Level Chicago Center
Thu 05:09:38 PM 40.8189 -91.3078 337° Northwest 120 138 6,000  Climbing Chicago Center
Thu 05:10:41 PM 40.8508 -91.3250 338° Northwest 122 140 5,900 -48 Descending Chicago Center
Thu 05:11:42 PM 40.8797 -91.3442 333° Northwest 120 138 5,900 48 Level Chicago Center
Thu 05:12:45 PM 40.9064 -91.3592 337° Northwest 110 127 6,000 48 Climbing Chicago Center
Thu 05:13:47 PM 40.9289 -91.3719 337° Northwest 83 96 6,000  Level Chicago Center
Thu 05:14:49 PM 40.9531 -91.3961 323° Northwest 103 119 6,000  Level Chicago Center
Thu 05:15:51 PM 40.9847 -91.4142 337° Northwest 121 139 6,000  Level Chicago Center
Thu 05:16:53 PM 41.0172 -91.4294 340° North 123 142 6,000  Level Chicago Center
Thu 05:17:55 PM 41.0539 -91.4544 333° Northwest 124 143 6,000  Level Chicago Center
Thu 05:18:57 PM 41.0883 -91.4711 340° North 126 145 6,000  Level Chicago Center
Thu 05:19:59 PM 41.1178 -91.4919 332° Northwest 124 143 6,000  Level Chicago Center
Thu 05:21:01 PM 41.1492 -91.5106 336° Northwest 124 143 6,000  Level Chicago Center
Thu 05:22:03 PM 41.1800 -91.5300 335° Northwest 123 142 6,000  Level Chicago Center
Thu 05:23:06 PM 41.2108 -91.5483 336° Northwest 121 139 6,000  Level Chicago Center
Thu 05:24:08 PM 41.2475 -91.5708 335° Northwest 124 143 6,000  Level Chicago Center
Thu 05:25:10 PM 41.2797 -91.5900 336° Northwest 127 146 6,000  Level Chicago Center
Thu 05:26:12 PM 41.3097 -91.6097 334° Northwest 123 142 6,000  Level Chicago Center
Thu 05:27:14 PM 41.3403 -91.6275 336° Northwest 121 139 6,000  Level Chicago Center
Thu 05:28:16 PM 41.3781 -91.6514 335° Northwest 126 145 6,000  Level Chicago Center
Thu 05:29:18 PM 41.4094 -91.6700 336° Northwest 125 144 6,000  Level Chicago Center
Thu 05:30:20 PM 41.4389 -91.6889 334° Northwest 123 142 6,000  Level Chicago Center
Thu 05:31:22 PM 41.4714 -91.7092 335° Northwest 127 146 6,000  Level Chicago Center
Thu 05:32:25 PM 41.5028 -91.7289 335° Northwest 126 145 6,000  Level Chicago Center
Thu 05:33:27 PM 41.5406 -91.7522 335° Northwest 124 143 6,000  Level Chicago Center
Thu 05:34:29 PM 41.5719 -91.7733 333° Northwest 127 146 6,000  Level Chicago Center
Thu 05:35:31 PM 41.6039 -91.7922 336° Northwest 125 144 6,000  Level Chicago Center
Thu 05:36:33 PM 41.6353 -91.8119 335° Northwest 126 145 6,000  Level Chicago Center
Thu 05:37:35 PM 41.6669 -91.8322 334° Northwest 127 146 6,000  Level Chicago Center
Thu 05:38:37 PM 41.7033 -91.8547 335° Northwest 122 140 6,000  Level Chicago Center
Thu 05:39:39 PM 41.7347 -91.8731 336° Northwest 123 142 6,000 -48 Level Chicago Center
Thu 05:40:42 PM 41.7653 -91.8931 334° Northwest 122 140 5,900  Descending Chicago Center
Thu 05:41:44 PM 41.7956 -91.9128 334° Northwest 122 140 6,000 48 Climbing Chicago Center
Thu 05:42:46 PM 41.8278 -91.9311 337° Northwest 125 144 6,000  Level Chicago Center
Thu 05:43:48 PM 41.8658 -91.9544 335° Northwest 127 146 6,000  Level Chicago Center
Thu 05:44:50 PM 41.8972 -91.9744 335° Northwest 126 145 6,000 -48 Level Chicago Center
Thu 05:45:52 PM 41.9289 -91.9944 335° Northwest 126 145 5,900  Descending Chicago Center
Thu 05:46:54 PM 41.9594 -92.0142 334° Northwest 125 144 6,000 48 Climbing Chicago Center
Thu 05:47:56 PM 41.9914 -92.0319 338° Northwest 125 144 6,000  Level Chicago Center
Thu 05:48:58 PM 42.0275 -92.0578 332° Northwest 124 143 6,000  Level Chicago Center
Thu 05:50:01 PM 42.0592 -92.0781 335° Northwest 125 144 6,000 -144 Level Chicago Center
Thu 05:51:03 PM 42.0908 -92.0975 336° Northwest 125 144 5,700 -339 Descending Chicago Center
Thu 05:52:05 PM 42.1261 -92.1181 337° Northwest 130 150 5,300 -290 Descending Chicago Center
Thu 05:53:07 PM 42.1617 -92.1408 335° Northwest 137 158 5,100 -145 Descending Chicago Center
Thu 05:54:09 PM 42.2022 -92.1675 334° Northwest 138 159 5,000 -48 Descending Chicago Center
Thu 05:55:11 PM 42.2339 -92.1900 332° Northwest 134 154 5,000  Level Chicago Center
Thu 05:56:13 PM 42.2664 -92.2100 336° Northwest 132 152 5,000 -48 Level Chicago Center
Thu 05:57:15 PM 42.2981 -92.2297 335° Northwest 129 148 4,900 -290 Descending Chicago Center
Thu 05:58:17 PM 42.3392 -92.2561 335° Northwest 132 152 4,400 -384 Descending Chicago Center
Thu 05:59:20 PM 42.3786 -92.2708 345° North 140 161 4,100 -336 Descending Chicago Center
Thu 06:00:22 PM 42.4178 -92.2858 344° North 144 166 3,700 -339 Descending Chicago Center
Thu 06:01:24 PM 42.4558 -92.3019 343° North 145 167 3,400 -387 Descending Chicago Center
Thu 06:02:26 PM 42.4919 -92.3225 337° Northwest 143 165 2,900 -629 Descending Chicago Center
Thu 06:03:28 PM 42.5369 -92.3478 338° Northwest 145 167 2,100 -484 Descending Chicago Center
Thu 06:05:32 PM 42.5764 -92.3919 320° Northwest 103 119 1,400 -290 Descending Chicago Center
Thu 06:06:34 PM 42.5689 -92.4186 249° West 98 113 1,200 -194 Descending Chicago Center
Thu 06:08:00 PM 42.5500 -92.4000 144° Southeast  Level FlightAware Approximate

Login

Don't have an account? Register now (free) for customized features, flight alerts, and more!